createdAt,value
2022-11-01T00:00:38.388Z,99584.00
2022-11-01T00:03:05.263Z,99574.00
2022-11-01T00:05:38.507Z,99563.00
2022-11-01T00:08:12.512Z,99567.00
2022-11-01T00:10:39.399Z,99561.00
2022-11-01T00:13:12.516Z,99572.00
2022-11-01T00:15:46.702Z,99562.00
2022-11-01T00:18:13.595Z,99561.00
2022-11-01T00:20:46.484Z,99567.00
2022-11-01T00:23:13.488Z,99583.00
2022-11-01T00:25:46.495Z,99577.00
2022-11-01T00:28:19.533Z,99579.00
2022-11-01T00:30:52.527Z,99577.00
2022-11-01T00:33:19.346Z,99581.00
2022-11-01T00:35:46.180Z,99578.00
2022-11-01T00:38:19.543Z,99563.00
2022-11-01T00:40:46.397Z,99568.00
2022-11-01T00:45:46.343Z,99576.00
2022-11-01T00:48:20.533Z,99574.00
2022-11-01T00:50:53.513Z,99565.00
2022-11-01T00:53:20.519Z,99569.00
2022-11-01T00:55:53.533Z,99552.00
2022-11-01T00:58:20.513Z,99579.00
2022-11-01T01:00:54.563Z,99577.00
2022-11-01T01:03:21.473Z,99581.00
2022-11-01T01:05:59.535Z,99579.00
2022-11-01T01:08:26.856Z,99578.00
2022-11-01T01:10:53.766Z,99582.00
2022-11-01T01:13:27.530Z,99576.00
2022-11-01T01:16:00.558Z,99577.00
2022-11-01T01:18:34.546Z,99571.00
2022-11-01T01:21:05.036Z,99576.00
2022-11-01T01:23:38.590Z,99579.00
2022-11-01T01:26:14.543Z,99584.00
2022-11-01T01:28:43.663Z,99582.00
2022-11-01T01:31:18.613Z,99580.00
2022-11-01T01:33:45.474Z,99575.00
2022-11-01T01:36:19.550Z,99577.00
2022-11-01T01:38:52.613Z,99569.00
2022-11-01T01:41:26.607Z,99582.00
2022-11-01T01:43:53.490Z,99575.00
2022-11-01T01:46:26.560Z,99568.00
2022-11-01T01:48:57.068Z,99568.00
2022-11-01T01:51:31.640Z,99575.00
2022-11-01T01:53:58.586Z,99573.00
2022-11-01T01:56:40.600Z,99578.00
2022-11-01T01:59:10.020Z,99560.00
2022-11-01T02:01:45.735Z,99567.00
2022-11-01T02:04:20.788Z,99564.00
2022-11-01T02:06:54.607Z,99569.00
2022-11-01T02:09:21.662Z,99571.00
2022-11-01T02:11:51.841Z,99578.00
2022-11-01T02:14:25.674Z,99549.00
2022-11-01T02:16:59.550Z,99573.00
2022-11-01T02:20:06.637Z,99578.00
2022-11-01T02:23:23.600Z,99582.00
2022-11-01T02:26:47.492Z,99588.00
2022-11-01T02:29:42.625Z,99549.00
2022-11-01T02:33:13.190Z,99578.00
2022-11-01T02:36:02.605Z,99563.00
2022-11-01T02:38:58.575Z,99578.00
2022-11-01T02:41:50.093Z,99569.00
2022-11-01T02:44:26.588Z,99565.00
2022-11-01T02:46:53.468Z,99568.00
2022-11-01T02:49:26.621Z,99568.00
2022-11-01T02:51:53.494Z,99565.00
2022-11-01T02:54:29.638Z,99572.00
2022-11-01T02:56:57.785Z,99561.00
2022-11-01T02:59:25.974Z,99560.00
2022-11-01T03:02:16.635Z,99564.00
2022-11-01T03:04:43.558Z,99561.00
2022-11-01T03:07:17.635Z,99555.00
2022-11-01T03:09:44.527Z,99557.00
2022-11-01T03:12:26.651Z,99561.00
2022-11-01T03:15:07.890Z,99560.00
2022-11-01T03:17:50.598Z,99572.00
2022-11-01T03:20:35.500Z,99574.00
2022-11-01T03:23:08.628Z,99571.00
2022-11-01T03:25:40.845Z,99563.00
2022-11-01T03:28:35.602Z,99566.00
2022-11-01T03:31:30.642Z,99563.00
2022-11-01T03:34:14.625Z,99562.00
2022-11-01T03:36:47.953Z,99541.00
2022-11-01T03:39:33.637Z,99560.00
2022-11-01T03:42:05.798Z,99545.00
2022-11-01T03:44:46.622Z,99542.00
2022-11-01T03:47:13.446Z,99546.00
2022-11-01T03:49:46.639Z,99548.00
2022-11-01T03:52:13.508Z,99540.00
2022-11-01T03:54:40.369Z,99552.00
2022-11-01T03:57:13.642Z,99544.00
2022-11-01T03:59:40.518Z,99557.00
2022-11-01T04:02:07.492Z,99556.00
2022-11-01T04:04:40.659Z,99573.00
2022-11-01T04:07:07.523Z,99562.00
2022-11-01T04:09:40.613Z,99571.00
2022-11-01T04:12:07.478Z,99577.00
2022-11-01T04:14:40.615Z,99569.00
2022-11-01T04:17:15.640Z,99570.00
2022-11-01T04:19:42.512Z,99576.00
2022-11-01T04:22:18.199Z,99574.00
2022-11-01T04:24:53.663Z,99576.00
2022-11-01T04:27:20.532Z,99573.00
2022-11-01T04:29:53.625Z,99565.00
2022-11-01T04:32:20.453Z,99567.00
2022-11-01T04:34:47.323Z,99576.00
2022-11-01T04:37:20.654Z,99551.00
2022-11-01T04:39:47.527Z,99568.00
2022-11-01T04:42:20.615Z,99562.00
2022-11-01T04:44:47.465Z,99570.00
2022-11-01T04:47:20.645Z,99566.00
2022-11-01T04:49:47.499Z,99564.00
2022-11-01T04:52:14.385Z,99557.00
2022-11-01T04:54:47.664Z,99561.00
2022-11-01T04:57:21.671Z,99534.00
2022-11-01T04:59:50.317Z,99539.00
2022-11-01T05:02:17.838Z,99539.00
2022-11-01T05:04:51.701Z,99545.00
2022-11-01T05:07:18.608Z,99542.00
2022-11-01T05:09:51.683Z,99554.00
2022-11-01T05:12:18.531Z,99560.00
2022-11-01T05:14:55.850Z,99555.00
2022-11-01T05:17:23.933Z,99561.00
2022-11-01T05:19:57.679Z,99561.00
2022-11-01T05:22:24.548Z,99540.00
2022-11-01T05:24:51.388Z,99547.00
2022-11-01T05:27:24.672Z,99556.00
2022-11-01T05:29:57.697Z,99554.00
2022-11-01T05:32:30.693Z,99547.00
2022-11-01T05:35:04.558Z,99555.00
2022-11-01T05:37:37.699Z,99557.00
2022-11-01T05:40:05.273Z,99545.00
2022-11-01T05:42:38.691Z,99552.00
2022-11-01T05:45:06.794Z,99565.00
2022-11-01T05:47:39.681Z,99565.00
2022-11-01T05:50:13.686Z,99567.00
2022-11-01T05:52:47.687Z,99565.00
2022-11-01T05:55:14.610Z,99567.00
2022-11-01T06:00:20.682Z,99565.00
2022-11-01T06:02:47.619Z,99567.00
2022-11-01T06:05:20.694Z,99561.00
2022-11-01T06:07:47.553Z,99572.00
2022-11-01T06:10:20.725Z,99570.00
2022-11-01T06:12:47.621Z,99587.00
2022-11-01T06:15:20.733Z,99571.00
2022-11-01T06:17:53.733Z,99578.00
2022-11-01T06:20:20.568Z,99592.00
2022-11-01T06:22:53.708Z,99588.00
2022-11-01T06:25:20.564Z,99605.00
2022-11-01T06:27:47.555Z,99594.00
2022-11-01T06:30:20.742Z,99592.00
2022-11-01T06:32:47.646Z,99597.00
2022-11-01T06:35:14.569Z,99612.00
2022-11-01T06:37:47.719Z,99603.00
2022-11-01T06:40:14.604Z,99605.00
2022-11-01T06:42:46.483Z,99611.00
2022-11-01T06:45:20.723Z,99622.00
2022-11-01T06:47:54.726Z,99622.00
2022-11-01T06:50:21.756Z,99628.00
2022-11-01T06:52:54.724Z,99628.00
2022-11-01T06:55:21.629Z,99635.00
2022-11-01T06:58:03.005Z,99638.00
2022-11-01T07:00:30.875Z,99638.00
2022-11-01T07:03:11.820Z,99640.00
2022-11-01T07:05:39.088Z,99642.00
2022-11-01T07:08:07.738Z,99635.00
2022-11-01T07:10:42.767Z,99657.00
2022-11-01T07:13:11.667Z,99662.00
2022-11-01T07:15:45.780Z,99674.00
2022-11-01T07:18:12.616Z,99681.00
2022-11-01T07:23:15.786Z,99682.00
2022-11-01T07:25:43.045Z,99691.00
2022-11-01T07:28:16.745Z,99706.00
2022-11-01T07:30:43.632Z,99693.00
2022-11-01T07:33:16.760Z,99692.00
2022-11-01T07:35:43.894Z,99698.00
2022-11-01T07:38:18.074Z,99693.00
2022-11-01T07:40:45.133Z,99696.00
2022-11-01T07:43:11.991Z,99689.00
2022-11-01T07:45:45.737Z,99692.00
2022-11-01T07:48:21.807Z,99701.00
2022-11-01T07:50:48.688Z,99695.00
2022-11-01T07:53:17.803Z,99700.00
2022-11-01T07:55:51.780Z,99703.00
2022-11-01T07:58:18.673Z,99696.00
2022-11-01T08:00:51.851Z,99703.00
2022-11-01T08:03:25.772Z,99700.00
2022-11-01T08:05:52.850Z,99698.00
2022-11-01T08:08:25.780Z,99700.00
2022-11-01T08:10:58.779Z,99717.00
2022-11-01T08:13:25.959Z,99711.00
2022-11-01T08:15:59.804Z,99714.00
2022-11-01T08:18:26.961Z,99722.00
2022-11-01T08:21:00.782Z,99704.00
2022-11-01T08:23:27.705Z,99712.00
2022-11-01T08:26:00.858Z,99706.00
2022-11-01T08:28:27.791Z,99703.00
2022-11-01T08:30:54.710Z,99713.00
2022-11-01T08:33:27.817Z,99717.00
2022-11-01T08:35:54.720Z,99733.00
2022-11-01T08:38:27.822Z,99737.00
2022-11-01T08:40:55.399Z,99737.00
2022-11-01T08:43:28.819Z,99721.00
2022-11-01T08:45:57.944Z,99734.00
2022-11-01T08:48:31.821Z,99739.00
2022-11-01T08:51:08.156Z,99739.00
2022-11-01T08:53:35.128Z,99746.00
2022-11-01T08:56:08.846Z,99752.00
2022-11-01T08:58:35.859Z,99736.00
2022-11-01T09:01:02.913Z,99747.00
2022-11-01T09:03:36.860Z,99731.00
2022-11-01T09:06:04.031Z,99751.00
2022-11-01T09:08:38.000Z,99749.00
2022-11-01T09:11:05.223Z,99742.00
2022-11-01T09:13:39.862Z,99738.00
2022-11-01T09:16:07.790Z,99753.00
2022-11-01T09:18:41.905Z,99753.00
2022-11-01T09:21:09.118Z,99763.00
2022-11-01T09:23:42.877Z,99752.00
2022-11-01T09:26:16.862Z,99760.00
2022-11-01T09:28:43.779Z,99763.00
2022-11-01T09:31:21.278Z,99767.00
2022-11-01T09:33:54.877Z,99766.00
2022-11-01T09:36:21.906Z,99764.00
2022-11-01T09:38:55.834Z,99773.00
2022-11-01T09:41:42.938Z,99766.00
2022-11-01T09:44:24.898Z,99770.00
2022-11-01T09:47:02.257Z,99764.00
2022-11-01T09:49:39.889Z,99763.00
2022-11-01T09:52:07.405Z,99777.00
2022-11-01T09:54:40.871Z,99784.00
2022-11-01T09:57:27.874Z,99788.00
2022-11-01T10:00:16.878Z,99777.00
2022-11-01T10:02:59.095Z,99778.00
2022-11-01T10:05:51.029Z,99782.00
2022-11-01T10:08:53.363Z,99784.00
2022-11-01T10:11:57.944Z,99780.00
2022-11-01T10:14:46.565Z,99784.00
2022-11-01T10:17:26.935Z,99781.00
2022-11-01T10:19:54.335Z,99775.00
2022-11-01T10:22:39.928Z,99776.00
2022-11-01T10:25:28.595Z,99771.00
2022-11-01T10:28:28.919Z,99784.00
2022-11-01T10:31:05.599Z,99776.00
2022-11-01T10:33:41.923Z,99775.00
2022-11-01T10:36:18.038Z,99768.00
2022-11-01T10:39:53.122Z,99756.00
2022-11-01T10:42:14.490Z,99771.00
2022-11-01T10:44:56.913Z,99779.00
2022-11-01T10:47:24.296Z,99784.00
2022-11-01T10:50:34.926Z,99777.00
2022-11-01T10:53:10.987Z,99761.00
2022-11-01T10:55:43.199Z,99751.00
2022-11-01T10:58:45.948Z,99748.00
2022-11-01T11:01:16.715Z,99746.00
2022-11-01T11:03:49.958Z,99747.00
2022-11-01T11:06:17.024Z,99748.00
2022-11-01T11:08:46.530Z,99748.00
2022-11-01T11:11:22.904Z,99726.00
2022-11-01T11:13:52.813Z,99740.00
2022-11-01T11:17:00.969Z,99739.00
2022-11-01T11:19:36.960Z,99749.00
2022-11-01T11:22:06.840Z,99730.00
2022-11-01T11:24:49.243Z,99734.00
2022-11-01T11:27:30.806Z,99748.00
2022-11-01T11:30:13.300Z,99735.00
2022-11-01T11:32:56.240Z,99712.00
2022-11-01T11:35:29.956Z,99698.00
2022-11-01T11:38:11.950Z,99691.00
2022-11-01T11:40:43.468Z,99699.00
2022-11-01T11:43:35.264Z,99716.00
2022-11-01T11:46:16.505Z,99719.00
2022-11-01T11:49:04.033Z,99703.00
2022-11-01T11:51:46.966Z,99702.00
2022-11-01T11:54:32.975Z,99703.00
2022-11-01T11:57:18.245Z,99691.00
2022-11-01T11:59:53.003Z,99703.00
2022-11-01T12:02:30.036Z,99699.00
2022-11-01T12:04:59.193Z,99701.00
2022-11-01T12:07:40.977Z,99698.00
2022-11-01T12:10:36.773Z,99687.00
2022-11-01T12:13:30.043Z,99671.00
2022-11-01T12:19:08.014Z,99680.00
2022-11-01T12:21:41.244Z,99677.00
2022-11-01T12:24:48.989Z,99670.00
2022-11-01T12:27:29.990Z,99694.00
2022-11-01T12:30:08.076Z,99695.00
2022-11-01T12:32:49.935Z,99694.00
2022-11-01T12:35:57.736Z,99693.00
2022-11-01T12:38:53.004Z,99679.00
2022-11-01T12:41:51.728Z,99673.00
2022-11-01T12:44:30.941Z,99658.00
2022-11-01T12:47:22.046Z,99656.00
2022-11-01T12:50:22.250Z,99660.00
2022-11-01T12:53:10.028Z,99644.00
2022-11-01T12:55:41.363Z,99630.00
2022-11-01T12:58:40.972Z,99636.00
2022-11-01T13:01:28.873Z,99624.00
2022-11-01T13:04:31.758Z,99643.00
2022-11-01T13:07:38.998Z,99635.00
2022-11-01T13:10:18.526Z,99633.00
2022-11-01T13:13:46.013Z,99625.00
2022-11-01T13:16:13.913Z,99647.00
2022-11-01T13:19:09.092Z,99640.00
2022-11-01T13:21:56.483Z,99655.00
2022-11-01T13:24:57.171Z,99624.00
2022-11-01T13:27:35.931Z,99649.00
2022-11-01T13:30:16.014Z,99626.00
2022-11-01T13:33:12.044Z,99647.00
2022-11-01T13:36:26.016Z,99620.00
2022-11-01T13:39:35.021Z,99641.00
2022-11-01T13:42:04.268Z,99631.00
2022-11-01T13:44:41.095Z,99636.00
2022-11-01T13:47:19.892Z,99651.00
2022-11-01T13:50:12.055Z,99643.00
2022-11-01T13:52:45.509Z,99627.00
2022-11-01T13:55:39.096Z,99653.00
2022-11-01T13:58:13.091Z,99631.00
2022-11-01T14:00:57.113Z,99649.00
2022-11-01T14:03:38.069Z,99649.00
2022-11-01T14:06:08.076Z,99647.00
2022-11-01T14:08:46.168Z,99633.00
2022-11-01T14:11:33.370Z,99650.00
2022-11-01T14:14:07.016Z,99639.00
2022-11-01T14:16:40.096Z,99629.00
2022-11-01T14:19:13.680Z,99648.00
2022-11-01T14:21:52.050Z,99636.00
2022-11-01T14:24:35.688Z,99643.00
2022-11-01T14:27:40.113Z,99640.00
2022-11-01T14:30:25.090Z,99671.00
2022-11-01T14:33:01.127Z,99663.00
2022-11-01T14:35:43.072Z,99667.00
2022-11-01T14:38:15.205Z,99657.00
2022-11-01T14:41:04.080Z,99665.00
2022-11-01T14:43:35.900Z,99661.00
2022-11-01T14:46:33.113Z,99658.00
2022-11-01T14:49:24.139Z,99655.00
2022-11-01T14:52:34.148Z,99669.00
2022-11-01T14:55:23.991Z,99664.00
2022-11-01T14:57:58.101Z,99647.00
2022-11-01T15:00:29.508Z,99635.00
2022-11-01T15:03:09.124Z,99637.00
2022-11-01T15:05:56.111Z,99641.00
2022-11-01T15:08:41.760Z,99654.00
2022-11-01T15:11:15.105Z,99647.00
2022-11-01T15:13:42.952Z,99632.00
2022-11-01T15:16:21.141Z,99655.00
2022-11-01T15:18:54.530Z,99650.00
2022-11-01T15:21:31.418Z,99630.00
2022-11-01T15:23:58.904Z,99633.00
2022-11-01T15:26:37.178Z,99629.00
2022-11-01T15:29:11.181Z,99640.00
2022-11-01T15:31:52.087Z,99648.00
2022-11-01T15:34:34.087Z,99657.00
2022-11-01T15:37:22.643Z,99660.00
2022-11-01T15:39:56.148Z,99656.00
2022-11-01T15:42:31.104Z,99664.00
2022-11-01T15:44:58.378Z,99658.00
2022-11-01T15:47:33.219Z,99669.00
2022-11-01T15:50:10.113Z,99670.00
2022-11-01T15:52:37.073Z,99677.00
2022-11-01T15:55:42.078Z,99686.00
2022-11-01T15:58:16.504Z,99682.00
2022-11-01T16:00:56.192Z,99661.00
2022-11-01T16:03:43.193Z,99689.00
2022-11-01T16:07:05.539Z,99685.00
2022-11-01T16:09:54.192Z,99669.00
2022-11-01T16:12:27.393Z,99671.00
2022-11-01T16:15:10.159Z,99662.00
2022-11-01T16:17:40.378Z,99665.00
2022-11-01T16:20:43.158Z,99667.00
2022-11-01T16:23:29.039Z,99671.00
2022-11-01T16:26:13.209Z,99661.00
2022-11-01T16:28:46.883Z,99660.00
2022-11-01T16:31:31.223Z,99672.00
2022-11-01T16:33:58.550Z,99680.00
2022-11-01T16:37:42.476Z,99709.00
2022-11-01T16:40:29.080Z,99706.00
2022-11-01T16:43:02.418Z,99713.00
2022-11-01T16:45:29.287Z,99727.00
2022-11-01T16:48:02.610Z,99718.00
2022-11-01T16:50:29.706Z,99722.00
2022-11-01T16:53:03.441Z,99727.00
2022-11-01T16:55:31.394Z,99729.00
2022-11-01T17:01:35.977Z,99736.00
2022-11-01T17:04:09.672Z,99724.00
2022-11-01T17:06:42.660Z,99729.00
2022-11-01T17:09:21.508Z,99732.00
2022-11-01T17:11:54.715Z,99735.00
2022-11-01T17:14:21.890Z,99749.00
2022-11-01T17:16:50.265Z,99753.00
2022-11-01T17:19:34.698Z,99749.00
2022-11-01T17:22:29.663Z,99743.00
2022-11-01T17:24:56.566Z,99756.00
2022-11-01T17:27:29.810Z,99750.00
2022-11-01T17:30:07.817Z,99739.00
2022-11-01T17:32:42.853Z,99745.00
2022-11-01T17:35:10.080Z,99726.00
2022-11-01T17:37:36.998Z,99731.00
2022-11-01T17:40:25.696Z,99745.00
2022-11-01T17:42:57.178Z,99754.00
2022-11-01T17:45:30.653Z,99763.00
2022-11-01T17:47:57.648Z,99762.00
2022-11-01T17:50:34.382Z,99747.00
2022-11-01T17:53:01.772Z,99756.00
2022-11-01T17:55:35.704Z,99746.00
2022-11-01T17:58:03.219Z,99757.00
2022-11-01T18:00:30.321Z,99751.00
2022-11-01T18:03:03.680Z,99748.00
2022-11-01T18:05:36.696Z,99762.00
2022-11-01T18:08:16.578Z,99764.00
2022-11-01T18:11:39.703Z,99774.00
2022-11-01T18:14:31.710Z,99767.00
2022-11-01T18:17:10.718Z,99765.00
2022-11-01T18:20:49.145Z,99760.00
2022-11-01T18:23:24.705Z,99753.00
2022-11-01T18:25:51.838Z,99759.00
2022-11-01T18:28:34.788Z,99771.00
2022-11-01T18:31:22.750Z,99758.00
2022-11-01T18:34:11.820Z,99754.00
2022-11-01T18:37:35.835Z,99781.00
2022-11-01T18:40:34.787Z,99749.00
2022-11-01T18:43:02.121Z,99754.00
2022-11-01T18:45:57.823Z,99775.00
2022-11-01T18:48:27.265Z,99770.00
2022-11-01T18:51:07.721Z,99786.00
2022-11-01T18:53:34.578Z,99785.00
2022-11-01T18:56:29.712Z,99780.00
2022-11-01T18:58:56.569Z,99761.00
2022-11-01T19:01:37.882Z,99764.00
2022-11-01T19:04:22.723Z,99758.00
2022-11-01T19:06:49.584Z,99752.00
2022-11-01T19:09:27.718Z,99751.00
2022-11-01T19:12:28.701Z,99764.00
2022-11-01T19:15:30.037Z,99758.00
2022-11-01T19:18:07.883Z,99738.00
2022-11-01T19:20:44.062Z,99760.00
2022-11-01T19:23:25.908Z,99757.00
2022-11-01T19:25:52.906Z,99754.00
2022-11-01T19:28:42.721Z,99772.00
2022-11-01T19:31:33.091Z,99772.00
2022-11-01T19:34:24.026Z,99767.00
2022-11-01T19:36:50.969Z,99751.00
2022-11-01T19:39:37.874Z,99766.00
2022-11-01T19:42:28.613Z,99766.00
2022-11-01T19:45:29.763Z,99768.00
2022-11-01T19:48:04.001Z,99759.00
2022-11-01T19:50:37.869Z,99774.00
2022-11-01T19:53:27.724Z,99777.00
2022-11-01T19:56:11.776Z,99779.00
2022-11-01T19:58:56.011Z,99770.00
2022-11-01T20:01:49.842Z,99765.00
2022-11-01T20:04:33.826Z,99784.00
2022-11-01T20:07:19.753Z,99772.00
2022-11-01T20:09:58.410Z,99768.00
2022-11-01T20:12:32.735Z,99777.00
2022-11-01T20:14:59.576Z,99778.00
2022-11-01T20:17:32.827Z,99778.00
2022-11-01T20:20:06.755Z,99766.00
2022-11-01T20:22:33.617Z,99776.00
2022-11-01T20:25:06.729Z,99780.00
2022-11-01T20:27:33.583Z,99771.00
2022-11-01T20:30:08.703Z,99791.00
2022-11-01T20:32:42.780Z,99789.00
2022-11-01T20:35:10.304Z,99779.00
2022-11-01T20:37:43.763Z,99783.00
2022-11-01T20:40:11.572Z,99779.00
2022-11-01T20:42:39.028Z,99776.00
2022-11-01T20:45:12.837Z,99787.00
2022-11-01T20:47:46.271Z,99782.00
2022-11-01T20:50:20.862Z,99765.00
2022-11-01T20:52:47.768Z,99771.00
2022-11-01T20:55:20.774Z,99763.00
2022-11-01T20:57:47.622Z,99770.00
2022-11-01T21:00:14.881Z,99771.00
2022-11-01T21:02:47.813Z,99777.00
2022-11-01T21:05:20.834Z,99783.00
2022-11-01T21:07:48.145Z,99779.00
2022-11-01T21:10:40.776Z,99773.00
2022-11-01T21:13:22.909Z,99775.00
2022-11-01T21:15:56.867Z,99771.00
2022-11-01T21:18:38.403Z,99776.00
2022-11-01T21:21:21.124Z,99782.00
2022-11-01T21:23:47.974Z,99764.00
2022-11-01T21:26:29.803Z,99776.00
2022-11-01T21:29:22.895Z,99774.00
2022-11-01T21:31:55.816Z,99778.00
2022-11-01T21:34:35.814Z,99787.00
2022-11-01T21:37:02.716Z,99790.00
2022-11-01T21:39:36.798Z,99783.00
2022-11-01T21:42:04.746Z,99776.00
2022-11-01T21:44:50.810Z,99788.00
2022-11-01T21:47:25.115Z,99784.00
2022-11-01T21:49:58.788Z,99784.00
2022-11-01T21:52:25.664Z,99776.00
2022-11-01T21:54:58.792Z,99783.00
2022-11-01T21:57:31.832Z,99781.00
2022-11-01T21:59:58.731Z,99779.00
2022-11-01T22:02:31.918Z,99786.00
2022-11-01T22:04:58.818Z,99789.00
2022-11-01T22:07:31.850Z,99777.00
2022-11-01T22:09:58.817Z,99773.00
2022-11-01T22:12:25.685Z,99777.00
2022-11-01T22:14:58.809Z,99781.00
2022-11-01T22:17:31.857Z,99785.00
2022-11-01T22:20:04.858Z,99777.00
2022-11-01T22:22:37.826Z,99773.00
2022-11-01T22:25:05.195Z,99772.00
2022-11-01T22:27:32.076Z,99774.00
2022-11-01T22:30:05.812Z,99766.00
2022-11-01T22:32:32.800Z,99777.00
2022-11-01T22:35:05.826Z,99775.00
2022-11-01T22:37:34.761Z,99774.00
2022-11-01T22:40:15.831Z,99769.00
2022-11-01T22:42:45.156Z,99751.00
2022-11-01T22:45:21.846Z,99761.00
2022-11-01T22:47:48.703Z,99782.00
2022-11-01T22:50:33.837Z,99783.00
2022-11-01T22:53:00.932Z,99768.00
2022-11-01T22:55:34.897Z,99768.00
2022-11-01T22:58:33.803Z,99792.00
2022-11-01T23:01:29.230Z,99788.00
2022-11-01T23:03:58.800Z,99788.00
2022-11-01T23:06:38.842Z,99787.00
2022-11-01T23:09:18.672Z,99797.00
2022-11-01T23:11:59.829Z,99791.00
2022-11-01T23:14:27.678Z,99789.00
2022-11-01T23:16:54.746Z,99790.00
2022-11-01T23:19:27.960Z,99783.00
2022-11-01T23:21:54.840Z,99781.00
2022-11-01T23:24:21.683Z,99785.00
2022-11-01T23:26:54.858Z,99789.00
2022-11-01T23:29:21.787Z,99776.00
2022-11-01T23:31:54.861Z,99781.00
2022-11-01T23:34:21.718Z,99775.00
2022-11-01T23:36:54.855Z,99786.00
2022-11-01T23:39:21.856Z,99781.00
2022-11-01T23:41:58.964Z,99785.00
2022-11-01T23:44:43.905Z,99776.00
2022-11-01T23:47:27.854Z,99775.00
2022-11-01T23:50:17.886Z,99780.00
2022-11-01T23:52:59.334Z,99787.00
2022-11-01T23:55:59.853Z,99785.00
2022-11-01T23:58:37.844Z,99783.00
